sensor_id;sensor_type;location;lat;lon;timestamp;P1;durP1;ratioP1;P2;durP2;ratioP2
1679;SDS011;838;51.794;12.258;2023-04-30T00:02:13;4.97;;;3.40;;
1679;SDS011;838;51.794;12.258;2023-04-30T00:04:39;6.50;;;3.50;;
1679;SDS011;838;51.794;12.258;2023-04-30T00:07:05;5.43;;;3.03;;
1679;SDS011;838;51.794;12.258;2023-04-30T00:09:31;5.23;;;3.50;;
1679;SDS011;838;51.794;12.258;2023-04-30T00:11:56;5.27;;;2.93;;
1679;SDS011;838;51.794;12.258;2023-04-30T00:14:22;6.60;;;3.40;;
1679;SDS011;838;51.794;12.258;2023-04-30T00:16:48;6.87;;;3.27;;
1679;SDS011;838;51.794;12.258;2023-04-30T00:19:14;5.03;;;3.27;;
1679;SDS011;838;51.794;12.258;2023-04-30T00:21:39;4.77;;;3.27;;
1679;SDS011;838;51.794;12.258;2023-04-30T00:24:06;9.63;;;3.47;;
1679;SDS011;838;51.794;12.258;2023-04-30T00:26:32;4.30;;;3.10;;
1679;SDS011;838;51.794;12.258;2023-04-30T00:28:57;6.37;;;3.30;;
1679;SDS011;838;51.794;12.258;2023-04-30T00:31:23;6.63;;;3.77;;
1679;SDS011;838;51.794;12.258;2023-04-30T00:33:49;5.50;;;3.57;;
1679;SDS011;838;51.794;12.258;2023-04-30T00:36:15;5.93;;;3.00;;
1679;SDS011;838;51.794;12.258;2023-04-30T00:38:41;5.90;;;3.40;;
1679;SDS011;838;51.794;12.258;2023-04-30T00:41:10;7.77;;;4.10;;
1679;SDS011;838;51.794;12.258;2023-04-30T00:43:36;5.57;;;3.60;;
1679;SDS011;838;51.794;12.258;2023-04-30T00:46:04;7.87;;;4.10;;
1679;SDS011;838;51.794;12.258;2023-04-30T00:48:30;7.23;;;3.77;;
1679;SDS011;838;51.794;12.258;2023-04-30T00:50:56;6.10;;;3.57;;
1679;SDS011;838;51.794;12.258;2023-04-30T00:53:22;5.13;;;3.03;;
1679;SDS011;838;51.794;12.258;2023-04-30T00:55:47;4.80;;;3.27;;
1679;SDS011;838;51.794;12.258;2023-04-30T00:58:13;7.07;;;3.60;;
1679;SDS011;838;51.794;12.258;2023-04-30T01:00:40;4.67;;;3.40;;
1679;SDS011;838;51.794;12.258;2023-04-30T01:03:11;5.73;;;3.50;;
1679;SDS011;838;51.794;12.258;2023-04-30T01:05:37;6.07;;;3.70;;
1679;SDS011;838;51.794;12.258;2023-04-30T01:08:03;4.20;;;2.97;;
1679;SDS011;838;51.794;12.258;2023-04-30T01:10:31;4.30;;;2.97;;
1679;SDS011;838;51.794;12.258;2023-04-30T01:13:16;5.43;;;3.17;;
1679;SDS011;838;51.794;12.258;2023-04-30T01:18:41;6.80;;;3.67;;
1679;SDS011;838;51.794;12.258;2023-04-30T01:21:11;6.77;;;3.73;;
1679;SDS011;838;51.794;12.258;2023-04-30T01:26:34;8.13;;;3.77;;
1679;SDS011;838;51.794;12.258;2023-04-30T01:29:13;5.73;;;3.40;;
1679;SDS011;838;51.794;12.258;2023-04-30T01:31:42;5.60;;;3.47;;
1679;SDS011;838;51.794;12.258;2023-04-30T01:34:08;8.10;;;4.70;;
1679;SDS011;838;51.794;12.258;2023-04-30T01:42:21;9.20;;;3.57;;
1679;SDS011;838;51.794;12.258;2023-04-30T01:45:11;7.23;;;4.70;;
1679;SDS011;838;51.794;12.258;2023-04-30T01:48:02;5.00;;;3.60;;
1679;SDS011;838;51.794;12.258;2023-04-30T01:50:52;6.30;;;3.70;;
1679;SDS011;838;51.794;12.258;2023-04-30T01:53:43;6.20;;;4.10;;
1679;SDS011;838;51.794;12.258;2023-04-30T01:56:27;9.27;;;3.83;;
1679;SDS011;838;51.794;12.258;2023-04-30T01:58:59;6.30;;;3.13;;
1679;SDS011;838;51.794;12.258;2023-04-30T02:01:30;6.50;;;3.30;;
1679;SDS011;838;51.794;12.258;2023-04-30T02:03:57;10.40;;;3.70;;
1679;SDS011;838;51.794;12.258;2023-04-30T02:06:23;5.63;;;3.30;;
1679;SDS011;838;51.794;12.258;2023-04-30T02:08:54;10.10;;;4.13;;
1679;SDS011;838;51.794;12.258;2023-04-30T02:11:27;8.23;;;3.83;;
1679;SDS011;838;51.794;12.258;2023-04-30T02:13:53;7.50;;;3.50;;
1679;SDS011;838;51.794;12.258;2023-04-30T02:16:19;8.40;;;3.53;;
1679;SDS011;838;51.794;12.258;2023-04-30T02:18:46;9.10;;;4.10;;
1679;SDS011;838;51.794;12.258;2023-04-30T02:21:12;9.10;;;4.67;;
1679;SDS011;838;51.794;12.258;2023-04-30T02:23:38;9.70;;;4.20;;
1679;SDS011;838;51.794;12.258;2023-04-30T02:26:04;6.73;;;4.33;;
1679;SDS011;838;51.794;12.258;2023-04-30T02:28:30;7.13;;;4.13;;
1679;SDS011;838;51.794;12.258;2023-04-30T02:30:56;8.90;;;3.40;;
1679;SDS011;838;51.794;12.258;2023-04-30T02:33:22;5.17;;;3.47;;
1679;SDS011;838;51.794;12.258;2023-04-30T02:35:48;6.90;;;3.60;;
1679;SDS011;838;51.794;12.258;2023-04-30T02:38:13;6.30;;;4.00;;
1679;SDS011;838;51.794;12.258;2023-04-30T02:40:39;8.13;;;3.80;;
1679;SDS011;838;51.794;12.258;2023-04-30T02:43:06;6.50;;;4.07;;
1679;SDS011;838;51.794;12.258;2023-04-30T02:45:32;5.37;;;3.50;;
1679;SDS011;838;51.794;12.258;2023-04-30T02:47:58;6.93;;;3.60;;
1679;SDS011;838;51.794;12.258;2023-04-30T02:50:23;8.13;;;3.93;;
1679;SDS011;838;51.794;12.258;2023-04-30T02:52:49;8.60;;;4.00;;
1679;SDS011;838;51.794;12.258;2023-04-30T02:55:15;4.93;;;3.50;;
1679;SDS011;838;51.794;12.258;2023-04-30T02:57:41;5.80;;;3.70;;
1679;SDS011;838;51.794;12.258;2023-04-30T03:00:07;9.00;;;3.57;;
1679;SDS011;838;51.794;12.258;2023-04-30T03:02:33;5.20;;;3.60;;
1679;SDS011;838;51.794;12.258;2023-04-30T03:04:59;9.10;;;4.33;;
1679;SDS011;838;51.794;12.258;2023-04-30T03:07:25;6.60;;;3.70;;
1679;SDS011;838;51.794;12.258;2023-04-30T03:09:50;6.20;;;3.77;;
1679;SDS011;838;51.794;12.258;2023-04-30T03:12:16;9.10;;;3.97;;
1679;SDS011;838;51.794;12.258;2023-04-30T03:14:42;8.40;;;4.70;;
1679;SDS011;838;51.794;12.258;2023-04-30T03:17:07;6.00;;;4.17;;
1679;SDS011;838;51.794;12.258;2023-04-30T03:19:33;7.23;;;3.90;;
1679;SDS011;838;51.794;12.258;2023-04-30T03:21:59;7.63;;;4.43;;
1679;SDS011;838;51.794;12.258;2023-04-30T03:24:25;8.80;;;4.30;;
1679;SDS011;838;51.794;12.258;2023-04-30T03:26:51;8.13;;;4.47;;
1679;SDS011;838;51.794;12.258;2023-04-30T03:29:16;7.33;;;4.30;;
1679;SDS011;838;51.794;12.258;2023-04-30T03:31:42;8.70;;;4.03;;
1679;SDS011;838;51.794;12.258;2023-04-30T03:34:08;7.50;;;4.67;;
1679;SDS011;838;51.794;12.258;2023-04-30T03:36:34;8.87;;;4.63;;
1679;SDS011;838;51.794;12.258;2023-04-30T03:39:00;7.97;;;5.30;;
1679;SDS011;838;51.794;12.258;2023-04-30T03:41:26;7.97;;;4.03;;
1679;SDS011;838;51.794;12.258;2023-04-30T03:43:52;9.50;;;4.70;;
1679;SDS011;838;51.794;12.258;2023-04-30T03:46:18;8.63;;;4.87;;
1679;SDS011;838;51.794;12.258;2023-04-30T03:48:44;7.50;;;4.50;;
1679;SDS011;838;51.794;12.258;2023-04-30T03:51:10;10.83;;;4.60;;
1679;SDS011;838;51.794;12.258;2023-04-30T03:53:35;7.33;;;3.90;;
1679;SDS011;838;51.794;12.258;2023-04-30T03:56:01;6.77;;;4.50;;
1679;SDS011;838;51.794;12.258;2023-04-30T03:58:28;7.83;;;4.53;;
1679;SDS011;838;51.794;12.258;2023-04-30T04:00:54;7.23;;;4.03;;
1679;SDS011;838;51.794;12.258;2023-04-30T04:03:20;7.77;;;4.30;;
1679;SDS011;838;51.794;12.258;2023-04-30T04:05:47;10.23;;;3.83;;
1679;SDS011;838;51.794;12.258;2023-04-30T04:08:13;10.30;;;5.37;;
1679;SDS011;838;51.794;12.258;2023-04-30T04:10:39;9.47;;;5.03;;
1679;SDS011;838;51.794;12.258;2023-04-30T04:13:05;7.50;;;5.10;;
1679;SDS011;838;51.794;12.258;2023-04-30T04:15:31;9.47;;;5.33;;
1679;SDS011;838;51.794;12.258;2023-04-30T04:17:57;13.53;;;5.50;;
1679;SDS011;838;51.794;12.258;2023-04-30T04:20:23;12.30;;;5.40;;
1679;SDS011;838;51.794;12.258;2023-04-30T04:22:49;10.50;;;5.80;;
1679;SDS011;838;51.794;12.258;2023-04-30T04:25:15;8.30;;;5.60;;
1679;SDS011;838;51.794;12.258;2023-04-30T04:27:42;9.07;;;5.60;;
1679;SDS011;838;51.794;12.258;2023-04-30T04:30:08;8.87;;;4.33;;
1679;SDS011;838;51.794;12.258;2023-04-30T04:32:34;8.70;;;5.40;;
1679;SDS011;838;51.794;12.258;2023-04-30T04:35:06;8.30;;;5.07;;
1679;SDS011;838;51.794;12.258;2023-04-30T04:37:33;10.03;;;5.23;;
1679;SDS011;838;51.794;12.258;2023-04-30T04:39:59;16.10;;;6.87;;
1679;SDS011;838;51.794;12.258;2023-04-30T04:42:25;6.60;;;4.90;;
1679;SDS011;838;51.794;12.258;2023-04-30T04:44:51;10.33;;;4.73;;
1679;SDS011;838;51.794;12.258;2023-04-30T04:47:16;8.00;;;5.23;;
1679;SDS011;838;51.794;12.258;2023-04-30T04:49:43;9.03;;;4.80;;
1679;SDS011;838;51.794;12.258;2023-04-30T04:52:10;10.63;;;5.17;;
1679;SDS011;838;51.794;12.258;2023-04-30T04:54:36;5.50;;;4.20;;
1679;SDS011;838;51.794;12.258;2023-04-30T04:57:02;11.40;;;4.87;;
1679;SDS011;838;51.794;12.258;2023-04-30T04:59:28;6.23;;;3.70;;
1679;SDS011;838;51.794;12.258;2023-04-30T05:01:54;6.67;;;3.40;;
1679;SDS011;838;51.794;12.258;2023-04-30T05:04:20;7.37;;;3.43;;
1679;SDS011;838;51.794;12.258;2023-04-30T05:06:46;5.90;;;3.50;;
1679;SDS011;838;51.794;12.258;2023-04-30T05:09:12;5.50;;;3.37;;
1679;SDS011;838;51.794;12.258;2023-04-30T05:11:38;5.53;;;2.77;;
1679;SDS011;838;51.794;12.258;2023-04-30T05:14:05;4.70;;;2.80;;
1679;SDS011;838;51.794;12.258;2023-04-30T05:16:31;6.93;;;3.00;;
1679;SDS011;838;51.794;12.258;2023-04-30T05:18:57;6.37;;;3.03;;
1679;SDS011;838;51.794;12.258;2023-04-30T05:21:23;5.63;;;3.47;;
1679;SDS011;838;51.794;12.258;2023-04-30T05:23:53;6.37;;;3.13;;
1679;SDS011;838;51.794;12.258;2023-04-30T05:26:19;6.80;;;3.57;;
1679;SDS011;838;51.794;12.258;2023-04-30T05:28:45;5.47;;;2.60;;
1679;SDS011;838;51.794;12.258;2023-04-30T05:31:10;7.63;;;2.70;;
1679;SDS011;838;51.794;12.258;2023-04-30T05:33:36;6.53;;;3.03;;
1679;SDS011;838;51.794;12.258;2023-04-30T05:36:02;5.67;;;2.60;;
1679;SDS011;838;51.794;12.258;2023-04-30T05:38:28;8.80;;;2.77;;
1679;SDS011;838;51.794;12.258;2023-04-30T05:40:53;5.30;;;2.93;;
1679;SDS011;838;51.794;12.258;2023-04-30T05:43:19;5.70;;;3.27;;
1679;SDS011;838;51.794;12.258;2023-04-30T05:45:45;4.97;;;2.80;;
1679;SDS011;838;51.794;12.258;2023-04-30T05:48:11;4.70;;;2.47;;
1679;SDS011;838;51.794;12.258;2023-04-30T05:50:36;6.10;;;3.00;;
1679;SDS011;838;51.794;12.258;2023-04-30T05:53:02;5.37;;;2.50;;
1679;SDS011;838;51.794;12.258;2023-04-30T05:55:28;5.50;;;2.87;;
1679;SDS011;838;51.794;12.258;2023-04-30T05:57:55;9.57;;;3.50;;
1679;SDS011;838;51.794;12.258;2023-04-30T06:00:20;7.90;;;2.60;;
1679;SDS011;838;51.794;12.258;2023-04-30T06:02:46;6.23;;;2.80;;
1679;SDS011;838;51.794;12.258;2023-04-30T06:05:12;8.43;;;2.90;;
1679;SDS011;838;51.794;12.258;2023-04-30T06:07:38;6.17;;;3.03;;
1679;SDS011;838;51.794;12.258;2023-04-30T06:10:04;7.73;;;2.60;;
1679;SDS011;838;51.794;12.258;2023-04-30T06:12:30;10.60;;;2.90;;
1679;SDS011;838;51.794;12.258;2023-04-30T06:14:56;6.83;;;2.67;;
1679;SDS011;838;51.794;12.258;2023-04-30T06:17:22;7.43;;;3.10;;
1679;SDS011;838;51.794;12.258;2023-04-30T06:19:48;8.97;;;4.37;;
1679;SDS011;838;51.794;12.258;2023-04-30T06:22:14;6.47;;;2.90;;
1679;SDS011;838;51.794;12.258;2023-04-30T06:24:39;8.40;;;3.90;;
1679;SDS011;838;51.794;12.258;2023-04-30T06:27:05;7.90;;;3.63;;
1679;SDS011;838;51.794;12.258;2023-04-30T06:29:31;6.40;;;2.90;;
1679;SDS011;838;51.794;12.258;2023-04-30T06:31:56;5.20;;;2.50;;
1679;SDS011;838;51.794;12.258;2023-04-30T06:34:22;6.27;;;3.00;;
1679;SDS011;838;51.794;12.258;2023-04-30T06:36:48;6.10;;;2.93;;
1679;SDS011;838;51.794;12.258;2023-04-30T06:39:14;8.87;;;3.37;;
1679;SDS011;838;51.794;12.258;2023-04-30T06:41:40;7.10;;;3.50;;
1679;SDS011;838;51.794;12.258;2023-04-30T06:44:07;9.37;;;3.33;;
1679;SDS011;838;51.794;12.258;2023-04-30T06:46:33;11.33;;;2.90;;
1679;SDS011;838;51.794;12.258;2023-04-30T06:48:59;7.87;;;3.73;;
1679;SDS011;838;51.794;12.258;2023-04-30T06:51:25;7.43;;;3.33;;
1679;SDS011;838;51.794;12.258;2023-04-30T06:53:51;9.60;;;3.20;;
1679;SDS011;838;51.794;12.258;2023-04-30T06:56:17;4.73;;;2.77;;
1679;SDS011;838;51.794;12.258;2023-04-30T06:58:43;10.53;;;3.30;;
1679;SDS011;838;51.794;12.258;2023-04-30T07:01:09;7.67;;;3.10;;
1679;SDS011;838;51.794;12.258;2023-04-30T07:03:35;7.20;;;2.90;;
1679;SDS011;838;51.794;12.258;2023-04-30T07:06:00;6.17;;;2.60;;
1679;SDS011;838;51.794;12.258;2023-04-30T07:08:26;7.00;;;3.07;;
1679;SDS011;838;51.794;12.258;2023-04-30T07:10:52;7.60;;;3.33;;
1679;SDS011;838;51.794;12.258;2023-04-30T07:13:18;5.50;;;2.80;;
1679;SDS011;838;51.794;12.258;2023-04-30T07:15:43;11.03;;;3.47;;
1679;SDS011;838;51.794;12.258;2023-04-30T07:18:09;9.97;;;3.00;;
1679;SDS011;838;51.794;12.258;2023-04-30T07:20:35;5.60;;;2.40;;
1679;SDS011;838;51.794;12.258;2023-04-30T07:23:01;6.40;;;3.10;;
1679;SDS011;838;51.794;12.258;2023-04-30T07:25:26;5.63;;;3.47;;
1679;SDS011;838;51.794;12.258;2023-04-30T07:27:53;6.30;;;3.07;;
1679;SDS011;838;51.794;12.258;2023-04-30T07:30:19;4.90;;;3.10;;
1679;SDS011;838;51.794;12.258;2023-04-30T07:32:46;8.00;;;2.73;;
1679;SDS011;838;51.794;12.258;2023-04-30T07:35:12;7.27;;;2.90;;
1679;SDS011;838;51.794;12.258;2023-04-30T07:37:38;5.70;;;2.97;;
1679;SDS011;838;51.794;12.258;2023-04-30T07:40:05;8.30;;;2.63;;
1679;SDS011;838;51.794;12.258;2023-04-30T07:42:36;8.47;;;3.07;;
1679;SDS011;838;51.794;12.258;2023-04-30T07:45:11;9.77;;;3.30;;
1679;SDS011;838;51.794;12.258;2023-04-30T07:47:37;5.43;;;2.90;;
1679;SDS011;838;51.794;12.258;2023-04-30T07:50:03;8.83;;;3.00;;
1679;SDS011;838;51.794;12.258;2023-04-30T07:52:30;5.10;;;2.80;;
1679;SDS011;838;51.794;12.258;2023-04-30T07:54:55;6.67;;;2.90;;
1679;SDS011;838;51.794;12.258;2023-04-30T07:57:21;13.47;;;3.33;;
1679;SDS011;838;51.794;12.258;2023-04-30T07:59:47;11.17;;;3.70;;
1679;SDS011;838;51.794;12.258;2023-04-30T08:02:13;8.70;;;3.80;;
1679;SDS011;838;51.794;12.258;2023-04-30T08:04:38;7.90;;;3.30;;
1679;SDS011;838;51.794;12.258;2023-04-30T08:07:04;9.17;;;3.60;;
1679;SDS011;838;51.794;12.258;2023-04-30T08:09:30;6.10;;;3.00;;
1679;SDS011;838;51.794;12.258;2023-04-30T08:11:55;9.70;;;2.93;;
1679;SDS011;838;51.794;12.258;2023-04-30T08:14:21;10.37;;;3.00;;
1679;SDS011;838;51.794;12.258;2023-04-30T08:16:47;9.43;;;3.10;;
1679;SDS011;838;51.794;12.258;2023-04-30T08:19:12;9.87;;;3.17;;
1679;SDS011;838;51.794;12.258;2023-04-30T08:21:38;13.00;;;2.90;;
1679;SDS011;838;51.794;12.258;2023-04-30T08:24:04;5.53;;;3.10;;
1679;SDS011;838;51.794;12.258;2023-04-30T08:26:30;7.30;;;3.10;;
1679;SDS011;838;51.794;12.258;2023-04-30T08:28:55;8.33;;;3.30;;
1679;SDS011;838;51.794;12.258;2023-04-30T08:31:21;5.73;;;2.50;;
1679;SDS011;838;51.794;12.258;2023-04-30T08:33:47;6.77;;;2.70;;
1679;SDS011;838;51.794;12.258;2023-04-30T08:36:13;6.63;;;2.60;;
1679;SDS011;838;51.794;12.258;2023-04-30T08:38:38;6.70;;;2.93;;
1679;SDS011;838;51.794;12.258;2023-04-30T08:41:08;4.90;;;2.30;;
1679;SDS011;838;51.794;12.258;2023-04-30T08:43:36;6.23;;;2.37;;
1679;SDS011;838;51.794;12.258;2023-04-30T08:46:05;7.33;;;2.50;;
1679;SDS011;838;51.794;12.258;2023-04-30T08:48:31;5.40;;;2.60;;
1679;SDS011;838;51.794;12.258;2023-04-30T08:51:01;8.17;;;2.80;;
1679;SDS011;838;51.794;12.258;2023-04-30T08:53:31;7.80;;;2.87;;
1679;SDS011;838;51.794;12.258;2023-04-30T08:55:59;9.20;;;3.17;;
1679;SDS011;838;51.794;12.258;2023-04-30T08:58:25;5.20;;;2.43;;
1679;SDS011;838;51.794;12.258;2023-04-30T09:00:51;5.13;;;2.47;;
1679;SDS011;838;51.794;12.258;2023-04-30T09:03:16;7.13;;;3.20;;
1679;SDS011;838;51.794;12.258;2023-04-30T09:05:42;5.13;;;2.40;;
1679;SDS011;838;51.794;12.258;2023-04-30T09:08:08;6.03;;;2.43;;
1679;SDS011;838;51.794;12.258;2023-04-30T09:10:41;6.97;;;2.50;;
1679;SDS011;838;51.794;12.258;2023-04-30T09:13:07;5.23;;;2.40;;
1679;SDS011;838;51.794;12.258;2023-04-30T09:15:34;6.87;;;2.63;;
1679;SDS011;838;51.794;12.258;2023-04-30T09:18:19;6.20;;;2.47;;
1679;SDS011;838;51.794;12.258;2023-04-30T09:20:56;6.43;;;2.53;;
1679;SDS011;838;51.794;12.258;2023-04-30T09:23:23;5.93;;;2.40;;
1679;SDS011;838;51.794;12.258;2023-04-30T09:25:49;5.97;;;2.80;;
1679;SDS011;838;51.794;12.258;2023-04-30T09:28:15;5.87;;;2.50;;
1679;SDS011;838;51.794;12.258;2023-04-30T09:30:41;5.90;;;2.90;;
1679;SDS011;838;51.794;12.258;2023-04-30T09:33:07;8.13;;;2.53;;
1679;SDS011;838;51.794;12.258;2023-04-30T09:35:34;5.47;;;2.57;;
1679;SDS011;838;51.794;12.258;2023-04-30T09:38:02;9.10;;;2.70;;
1679;SDS011;838;51.794;12.258;2023-04-30T09:40:35;6.03;;;3.10;;
1679;SDS011;838;51.794;12.258;2023-04-30T09:43:03;7.00;;;2.63;;
1679;SDS011;838;51.794;12.258;2023-04-30T09:45:39;7.10;;;2.53;;
1679;SDS011;838;51.794;12.258;2023-04-30T09:48:11;9.73;;;2.63;;
1679;SDS011;838;51.794;12.258;2023-04-30T09:50:40;5.97;;;2.80;;
1679;SDS011;838;51.794;12.258;2023-04-30T09:53:10;5.70;;;2.60;;
1679;SDS011;838;51.794;12.258;2023-04-30T09:55:42;5.70;;;2.67;;
1679;SDS011;838;51.794;12.258;2023-04-30T09:58:12;4.83;;;2.33;;
1679;SDS011;838;51.794;12.258;2023-04-30T10:00:39;7.07;;;3.07;;
1679;SDS011;838;51.794;12.258;2023-04-30T10:03:07;7.43;;;3.30;;
1679;SDS011;838;51.794;12.258;2023-04-30T10:05:40;8.80;;;3.43;;
1679;SDS011;838;51.794;12.258;2023-04-30T10:08:21;8.43;;;2.63;;
1679;SDS011;838;51.794;12.258;2023-04-30T10:10:50;8.50;;;3.37;;
1679;SDS011;838;51.794;12.258;2023-04-30T10:13:22;6.30;;;2.83;;
1679;SDS011;838;51.794;12.258;2023-04-30T10:15:51;7.00;;;2.97;;
1679;SDS011;838;51.794;12.258;2023-04-30T10:18:36;5.73;;;2.90;;
1679;SDS011;838;51.794;12.258;2023-04-30T10:21:06;4.57;;;2.53;;
1679;SDS011;838;51.794;12.258;2023-04-30T10:23:36;6.50;;;3.30;;
1679;SDS011;838;51.794;12.258;2023-04-30T10:26:07;8.83;;;3.03;;
1679;SDS011;838;51.794;12.258;2023-04-30T10:28:37;6.13;;;2.60;;
1679;SDS011;838;51.794;12.258;2023-04-30T10:31:04;10.20;;;3.03;;
1679;SDS011;838;51.794;12.258;2023-04-30T10:33:34;4.93;;;3.17;;
1679;SDS011;838;51.794;12.258;2023-04-30T10:36:05;5.83;;;2.60;;
1679;SDS011;838;51.794;12.258;2023-04-30T10:38:35;7.57;;;3.03;;
1679;SDS011;838;51.794;12.258;2023-04-30T10:41:04;7.10;;;2.97;;
1679;SDS011;838;51.794;12.258;2023-04-30T10:43:31;5.50;;;2.47;;
1679;SDS011;838;51.794;12.258;2023-04-30T10:45:59;7.97;;;2.87;;
1679;SDS011;838;51.794;12.258;2023-04-30T10:48:27;8.00;;;2.63;;
1679;SDS011;838;51.794;12.258;2023-04-30T10:50:55;9.00;;;3.20;;
1679;SDS011;838;51.794;12.258;2023-04-30T10:53:22;6.40;;;2.80;;
1679;SDS011;838;51.794;12.258;2023-04-30T10:58:30;6.97;;;2.80;;
1679;SDS011;838;51.794;12.258;2023-04-30T11:03:40;6.70;;;2.70;;
1679;SDS011;838;51.794;12.258;2023-04-30T11:06:11;7.00;;;2.77;;
1679;SDS011;838;51.794;12.258;2023-04-30T11:08:39;8.50;;;2.77;;
1679;SDS011;838;51.794;12.258;2023-04-30T11:11:08;5.33;;;2.50;;
1679;SDS011;838;51.794;12.258;2023-04-30T11:13:43;6.13;;;2.30;;
1679;SDS011;838;51.794;12.258;2023-04-30T11:16:10;5.70;;;2.63;;
1679;SDS011;838;51.794;12.258;2023-04-30T11:18:43;6.70;;;3.23;;
1679;SDS011;838;51.794;12.258;2023-04-30T11:21:09;9.20;;;2.40;;
1679;SDS011;838;51.794;12.258;2023-04-30T11:23:36;7.17;;;2.70;;
1679;SDS011;838;51.794;12.258;2023-04-30T11:26:05;5.47;;;2.70;;
1679;SDS011;838;51.794;12.258;2023-04-30T11:28:32;5.00;;;2.47;;
1679;SDS011;838;51.794;12.258;2023-04-30T11:31:00;5.80;;;2.80;;
1679;SDS011;838;51.794;12.258;2023-04-30T11:33:28;4.47;;;2.70;;
1679;SDS011;838;51.794;12.258;2023-04-30T11:35:55;6.87;;;2.57;;
1679;SDS011;838;51.794;12.258;2023-04-30T11:38:25;4.83;;;2.90;;
1679;SDS011;838;51.794;12.258;2023-04-30T11:40:52;5.37;;;2.40;;
1679;SDS011;838;51.794;12.258;2023-04-30T11:45:58;6.93;;;2.90;;
1679;SDS011;838;51.794;12.258;2023-04-30T11:48:42;4.80;;;2.37;;
1679;SDS011;838;51.794;12.258;2023-04-30T11:51:22;6.83;;;2.50;;
1679;SDS011;838;51.794;12.258;2023-04-30T11:53:49;7.33;;;2.90;;
1679;SDS011;838;51.794;12.258;2023-04-30T11:56:18;4.70;;;2.73;;
1679;SDS011;838;51.794;12.258;2023-04-30T11:58:45;5.77;;;2.50;;
1679;SDS011;838;51.794;12.258;2023-04-30T12:01:11;6.23;;;2.40;;
1679;SDS011;838;51.794;12.258;2023-04-30T12:03:44;4.40;;;2.33;;
1679;SDS011;838;51.794;12.258;2023-04-30T12:06:20;4.63;;;2.63;;
1679;SDS011;838;51.794;12.258;2023-04-30T12:08:58;6.07;;;2.70;;
1679;SDS011;838;51.794;12.258;2023-04-30T12:11:36;4.57;;;2.20;;
1679;SDS011;838;51.794;12.258;2023-04-30T12:14:03;5.70;;;2.37;;
1679;SDS011;838;51.794;12.258;2023-04-30T12:16:40;4.47;;;2.30;;
1679;SDS011;838;51.794;12.258;2023-04-30T12:19:13;5.23;;;2.53;;
1679;SDS011;838;51.794;12.258;2023-04-30T12:21:42;5.07;;;2.80;;
1679;SDS011;838;51.794;12.258;2023-04-30T12:24:11;5.07;;;2.23;;
1679;SDS011;838;51.794;12.258;2023-04-30T12:26:38;6.67;;;2.67;;
1679;SDS011;838;51.794;12.258;2023-04-30T12:29:09;5.87;;;2.60;;
1679;SDS011;838;51.794;12.258;2023-04-30T12:31:38;10.07;;;2.50;;
1679;SDS011;838;51.794;12.258;2023-04-30T12:34:06;5.50;;;2.80;;
1679;SDS011;838;51.794;12.258;2023-04-30T12:36:33;7.07;;;2.73;;
1679;SDS011;838;51.794;12.258;2023-04-30T12:39:07;4.90;;;2.30;;
1679;SDS011;838;51.794;12.258;2023-04-30T12:41:41;5.23;;;2.47;;
1679;SDS011;838;51.794;12.258;2023-04-30T12:46:40;4.10;;;2.20;;
1679;SDS011;838;51.794;12.258;2023-04-30T12:49:06;4.50;;;2.73;;
1679;SDS011;838;51.794;12.258;2023-04-30T12:51:35;7.77;;;2.57;;
1679;SDS011;838;51.794;12.258;2023-04-30T12:54:01;5.73;;;2.60;;
1679;SDS011;838;51.794;12.258;2023-04-30T12:56:26;4.77;;;2.60;;
1679;SDS011;838;51.794;12.258;2023-04-30T12:58:52;5.23;;;2.70;;
1679;SDS011;838;51.794;12.258;2023-04-30T13:01:19;7.07;;;2.87;;
1679;SDS011;838;51.794;12.258;2023-04-30T13:03:48;7.10;;;4.10;;
1679;SDS011;838;51.794;12.258;2023-04-30T13:06:14;6.63;;;2.77;;
1679;SDS011;838;51.794;12.258;2023-04-30T13:08:40;4.80;;;2.43;;
1679;SDS011;838;51.794;12.258;2023-04-30T13:11:06;6.03;;;2.30;;
1679;SDS011;838;51.794;12.258;2023-04-30T13:13:32;6.80;;;2.70;;
1679;SDS011;838;51.794;12.258;2023-04-30T13:15:58;5.70;;;2.73;;
1679;SDS011;838;51.794;12.258;2023-04-30T13:18:24;3.97;;;2.30;;
1679;SDS011;838;51.794;12.258;2023-04-30T13:20:50;4.90;;;2.23;;
1679;SDS011;838;51.794;12.258;2023-04-30T13:23:16;4.80;;;2.37;;
1679;SDS011;838;51.794;12.258;2023-04-30T13:25:42;5.60;;;2.40;;
1679;SDS011;838;51.794;12.258;2023-04-30T13:28:08;6.70;;;2.60;;
1679;SDS011;838;51.794;12.258;2023-04-30T13:30:34;5.07;;;2.20;;
1679;SDS011;838;51.794;12.258;2023-04-30T13:33:00;4.83;;;2.93;;
1679;SDS011;838;51.794;12.258;2023-04-30T13:35:26;4.67;;;2.30;;
1679;SDS011;838;51.794;12.258;2023-04-30T13:37:52;6.73;;;2.23;;
1679;SDS011;838;51.794;12.258;2023-04-30T13:40:18;7.57;;;2.30;;
1679;SDS011;838;51.794;12.258;2023-04-30T13:42:45;4.33;;;2.10;;
1679;SDS011;838;51.794;12.258;2023-04-30T13:45:12;5.40;;;2.50;;
1679;SDS011;838;51.794;12.258;2023-04-30T13:47:37;7.43;;;2.50;;
1679;SDS011;838;51.794;12.258;2023-04-30T13:50:04;5.57;;;2.37;;
1679;SDS011;838;51.794;12.258;2023-04-30T13:52:30;3.50;;;1.90;;
1679;SDS011;838;51.794;12.258;2023-04-30T13:54:56;6.53;;;2.30;;
1679;SDS011;838;51.794;12.258;2023-04-30T13:57:23;5.17;;;2.23;;
1679;SDS011;838;51.794;12.258;2023-04-30T13:59:49;4.27;;;2.40;;
1679;SDS011;838;51.794;12.258;2023-04-30T14:02:15;6.20;;;2.63;;
1679;SDS011;838;51.794;12.258;2023-04-30T14:04:41;4.13;;;2.00;;
1679;SDS011;838;51.794;12.258;2023-04-30T14:07:07;6.93;;;2.57;;
1679;SDS011;838;51.794;12.258;2023-04-30T14:09:33;3.70;;;2.17;;
1679;SDS011;838;51.794;12.258;2023-04-30T14:11:59;6.10;;;1.90;;
1679;SDS011;838;51.794;12.258;2023-04-30T14:14:26;5.10;;;2.03;;
1679;SDS011;838;51.794;12.258;2023-04-30T14:16:52;4.50;;;2.23;;
1679;SDS011;838;51.794;12.258;2023-04-30T14:19:20;5.60;;;2.20;;
1679;SDS011;838;51.794;12.258;2023-04-30T14:21:46;4.43;;;1.90;;
1679;SDS011;838;51.794;12.258;2023-04-30T14:24:12;3.50;;;1.90;;
1679;SDS011;838;51.794;12.258;2023-04-30T14:26:38;3.93;;;2.13;;
1679;SDS011;838;51.794;12.258;2023-04-30T14:29:07;7.80;;;2.20;;
1679;SDS011;838;51.794;12.258;2023-04-30T14:31:33;7.43;;;2.27;;
1679;SDS011;838;51.794;12.258;2023-04-30T14:33:59;4.40;;;1.80;;
1679;SDS011;838;51.794;12.258;2023-04-30T14:36:25;4.30;;;2.10;;
1679;SDS011;838;51.794;12.258;2023-04-30T14:38:51;3.57;;;1.60;;
1679;SDS011;838;51.794;12.258;2023-04-30T14:41:17;4.60;;;2.00;;
1679;SDS011;838;51.794;12.258;2023-04-30T14:43:43;5.00;;;2.57;;
1679;SDS011;838;51.794;12.258;2023-04-30T14:46:09;6.10;;;2.27;;
1679;SDS011;838;51.794;12.258;2023-04-30T14:58:45;4.07;;;1.93;;
1679;SDS011;838;51.794;12.258;2023-04-30T15:01:11;3.80;;;2.00;;
1679;SDS011;838;51.794;12.258;2023-04-30T15:03:36;3.30;;;1.87;;
1679;SDS011;838;51.794;12.258;2023-04-30T15:06:02;4.80;;;1.80;;
1679;SDS011;838;51.794;12.258;2023-04-30T15:08:28;4.03;;;1.83;;
1679;SDS011;838;51.794;12.258;2023-04-30T15:10:54;4.53;;;2.13;;
1679;SDS011;838;51.794;12.258;2023-04-30T15:13:21;4.80;;;1.80;;
1679;SDS011;838;51.794;12.258;2023-04-30T15:15:47;6.00;;;2.10;;
1679;SDS011;838;51.794;12.258;2023-04-30T15:18:13;4.03;;;2.30;;
1679;SDS011;838;51.794;12.258;2023-04-30T15:20:39;3.30;;;1.90;;
1679;SDS011;838;51.794;12.258;2023-04-30T15:23:05;3.33;;;1.83;;
1679;SDS011;838;51.794;12.258;2023-04-30T15:25:32;5.80;;;1.73;;
1679;SDS011;838;51.794;12.258;2023-04-30T15:27:58;5.50;;;2.50;;
1679;SDS011;838;51.794;12.258;2023-04-30T15:30:24;6.73;;;2.50;;
1679;SDS011;838;51.794;12.258;2023-04-30T15:32:54;5.87;;;2.67;;
1679;SDS011;838;51.794;12.258;2023-04-30T15:35:19;5.17;;;3.10;;
1679;SDS011;838;51.794;12.258;2023-04-30T15:37:45;5.07;;;2.67;;
1679;SDS011;838;51.794;12.258;2023-04-30T15:40:11;5.60;;;2.13;;
1679;SDS011;838;51.794;12.258;2023-04-30T15:42:39;4.43;;;2.30;;
1679;SDS011;838;51.794;12.258;2023-04-30T15:45:06;4.40;;;2.00;;
1679;SDS011;838;51.794;12.258;2023-04-30T15:47:35;3.17;;;2.00;;
1679;SDS011;838;51.794;12.258;2023-04-30T15:50:02;4.60;;;2.10;;